sensor_id;sensor_type;location;lat;lon;timestamp;temperature;humidity
6552;DHT22;3309;48.708;9.290;2022-12-18T02:51:53;-9.10;1.00
6552;DHT22;3309;48.708;9.290;2022-12-18T02:57:09;-9.20;1.00
6552;DHT22;3309;48.708;9.290;2022-12-18T02:59:45;-9.20;1.00
6552;DHT22;3309;48.708;9.290;2022-12-18T03:05:04;-9.10;99.90
6552;DHT22;3309;48.708;9.290;2022-12-18T03:08:29;-9.10;1.00
6552;DHT22;3309;48.708;9.290;2022-12-18T03:10:32;-9.00;1.00
6552;DHT22;3309;48.708;9.290;2022-12-18T03:13:03;-9.10;1.00
6552;DHT22;3309;48.708;9.290;2022-12-18T03:15:34;-9.20;1.00
6552;DHT22;3309;48.708;9.290;2022-12-18T03:18:10;-9.20;1.00
6552;DHT22;3309;48.708;9.290;2022-12-18T03:20:39;-9.20;1.00
6552;DHT22;3309;48.708;9.290;2022-12-18T03:23:15;-9.20;1.00
6552;DHT22;3309;48.708;9.290;2022-12-18T03:25:44;-9.10;1.00
6552;DHT22;3309;48.708;9.290;2022-12-18T03:28:14;-9.10;99.90
6552;DHT22;3309;48.708;9.290;2022-12-18T03:30:41;-9.20;99.90
6552;DHT22;3309;48.708;9.290;2022-12-18T03:33:12;-9.20;99.90
6552;DHT22;3309;48.708;9.290;2022-12-18T03:35:41;-9.20;99.90
6552;DHT22;3309;48.708;9.290;2022-12-18T03:38:08;-9.30;99.90
6552;DHT22;3309;48.708;9.290;2022-12-18T03:40:59;-9.40;99.90
6552;DHT22;3309;48.708;9.290;2022-12-18T03:43:39;-9.50;99.90
6552;DHT22;3309;48.708;9.290;2022-12-18T03:46:26;-9.50;99.90
6552;DHT22;3309;48.708;9.290;2022-12-18T03:49:19;-9.50;99.90
6552;DHT22;3309;48.708;9.290;2022-12-18T03:51:57;-9.50;99.90
6552;DHT22;3309;48.708;9.290;2022-12-18T03:54:26;-9.50;99.90
6552;DHT22;3309;48.708;9.290;2022-12-18T03:57:01;-9.60;99.90
6552;DHT22;3309;48.708;9.290;2022-12-18T03:59:29;-9.60;99.90
6552;DHT22;3309;48.708;9.290;2022-12-18T04:01:56;-9.60;99.90
6552;DHT22;3309;48.708;9.290;2022-12-18T04:04:24;-9.70;62.00
6552;DHT22;3309;48.708;9.290;2022-12-18T04:06:51;-9.80;32.00
6552;DHT22;3309;48.708;9.290;2022-12-18T04:09:18;-9.90;1.00
6552;DHT22;3309;48.708;9.290;2022-12-18T04:11:44;-9.90;1.00
6552;DHT22;3309;48.708;9.290;2022-12-18T04:14:11;-10.00;1.00
6552;DHT22;3309;48.708;9.290;2022-12-18T04:16:37;-10.00;44.70
6552;DHT22;3309;48.708;9.290;2022-12-18T04:19:03;-9.90;67.30
6552;DHT22;3309;48.708;9.290;2022-12-18T04:21:29;-9.90;88.90
6552;DHT22;3309;48.708;9.290;2022-12-18T04:23:54;-9.90;99.90
6552;DHT22;3309;48.708;9.290;2022-12-18T04:26:20;-9.90;72.80
6552;DHT22;3309;48.708;9.290;2022-12-18T04:28:46;-10.00;1.00
6552;DHT22;3309;48.708;9.290;2022-12-18T04:31:11;-10.10;38.50
6552;DHT22;3309;48.708;9.290;2022-12-18T04:33:37;-10.10;48.10
6552;DHT22;3309;48.708;9.290;2022-12-18T04:36:03;-10.20;33.30
6552;DHT22;3309;48.708;9.290;2022-12-18T04:38:29;-10.30;51.20
6552;DHT22;3309;48.708;9.290;2022-12-18T04:40:54;-10.30;47.20
6552;DHT22;3309;48.708;9.290;2022-12-18T04:43:20;-10.30;25.30
6552;DHT22;3309;48.708;9.290;2022-12-18T04:45:46;-10.30;1.00
6552;DHT22;3309;48.708;9.290;2022-12-18T04:48:11;-10.30;1.00
6552;DHT22;3309;48.708;9.290;2022-12-18T04:50:37;-10.30;1.00
6552;DHT22;3309;48.708;9.290;2022-12-18T04:53:02;-10.30;1.00
6552;DHT22;3309;48.708;9.290;2022-12-18T04:55:28;-10.40;1.00
6552;DHT22;3309;48.708;9.290;2022-12-18T04:57:54;-10.40;1.00
6552;DHT22;3309;48.708;9.290;2022-12-18T05:00:20;-10.50;1.00
6552;DHT22;3309;48.708;9.290;2022-12-18T05:02:45;-10.50;1.00
6552;DHT22;3309;48.708;9.290;2022-12-18T05:05:11;-10.50;1.00
6552;DHT22;3309;48.708;9.290;2022-12-18T05:07:36;-10.50;1.00
6552;DHT22;3309;48.708;9.290;2022-12-18T05:10:03;-10.50;1.00
6552;DHT22;3309;48.708;9.290;2022-12-18T05:12:30;-10.40;1.00
6552;DHT22;3309;48.708;9.290;2022-12-18T05:14:56;-10.40;70.10
6552;DHT22;3309;48.708;9.290;2022-12-18T05:17:22;-10.30;99.90
6552;DHT22;3309;48.708;9.290;2022-12-18T05:19:47;-10.40;99.90
6552;DHT22;3309;48.708;9.290;2022-12-18T05:22:13;-10.40;99.90
6552;DHT22;3309;48.708;9.290;2022-12-18T05:24:38;-10.40;99.90
6552;DHT22;3309;48.708;9.290;2022-12-18T05:27:04;-10.40;99.90
6552;DHT22;3309;48.708;9.290;2022-12-18T05:29:29;-10.40;99.90
6552;DHT22;3309;48.708;9.290;2022-12-18T05:31:55;-10.40;99.90
6552;DHT22;3309;48.708;9.290;2022-12-18T05:34:20;-10.40;99.90
6552;DHT22;3309;48.708;9.290;2022-12-18T05:36:46;-10.40;99.90
6552;DHT22;3309;48.708;9.290;2022-12-18T05:39:12;-10.40;63.10
6552;DHT22;3309;48.708;9.290;2022-12-18T05:41:37;-10.50;99.90
6552;DHT22;3309;48.708;9.290;2022-12-18T05:44:03;-10.60;84.00
6552;DHT22;3309;48.708;9.290;2022-12-18T05:46:29;-10.80;1.00
6552;DHT22;3309;48.708;9.290;2022-12-18T05:48:55;-11.10;28.80
6552;DHT22;3309;48.708;9.290;2022-12-18T05:51:21;-11.20;6.40
6552;DHT22;3309;48.708;9.290;2022-12-18T05:53:48;-11.20;1.00
6552;DHT22;3309;48.708;9.290;2022-12-18T05:56:18;-11.20;1.00
6552;DHT22;3309;48.708;9.290;2022-12-18T05:58:44;-11.30;1.00
6552;DHT22;3309;48.708;9.290;2022-12-18T06:01:22;-11.30;1.00
6552;DHT22;3309;48.708;9.290;2022-12-18T06:03:48;-11.20;1.00
6552;DHT22;3309;48.708;9.290;2022-12-18T06:06:20;-11.30;1.00
6552;DHT22;3309;48.708;9.290;2022-12-18T06:08:46;-11.30;1.00
6552;DHT22;3309;48.708;9.290;2022-12-18T06:11:12;-11.30;1.00
6552;DHT22;3309;48.708;9.290;2022-12-18T06:13:38;-11.30;1.00
6552;DHT22;3309;48.708;9.290;2022-12-18T06:16:05;-11.30;1.00
6552;DHT22;3309;48.708;9.290;2022-12-18T06:18:31;-11.40;1.00
6552;DHT22;3309;48.708;9.290;2022-12-18T06:20:57;-11.40;1.00
6552;DHT22;3309;48.708;9.290;2022-12-18T06:23:23;-11.50;1.00
6552;DHT22;3309;48.708;9.290;2022-12-18T06:25:49;-11.60;1.00
6552;DHT22;3309;48.708;9.290;2022-12-18T06:28:15;-11.80;1.00
6552;DHT22;3309;48.708;9.290;2022-12-18T06:30:43;-12.00;1.00
6552;DHT22;3309;48.708;9.290;2022-12-18T06:33:09;-12.10;1.00
6552;DHT22;3309;48.708;9.290;2022-12-18T06:35:34;-12.10;1.00
6552;DHT22;3309;48.708;9.290;2022-12-18T06:38:02;-12.20;1.00
6552;DHT22;3309;48.708;9.290;2022-12-18T06:40:27;-12.20;4.50
6552;DHT22;3309;48.708;9.290;2022-12-18T06:42:53;-12.00;56.20
6552;DHT22;3309;48.708;9.290;2022-12-18T06:45:18;-11.90;1.00
6552;DHT22;3309;48.708;9.290;2022-12-18T06:47:44;-11.80;1.00
6552;DHT22;3309;48.708;9.290;2022-12-18T06:50:10;-11.70;1.00
6552;DHT22;3309;48.708;9.290;2022-12-18T06:52:35;-11.60;1.00
6552;DHT22;3309;48.708;9.290;2022-12-18T06:55:02;-11.60;1.00
6552;DHT22;3309;48.708;9.290;2022-12-18T06:57:28;-11.60;1.00
6552;DHT22;3309;48.708;9.290;2022-12-18T06:59:54;-11.60;1.00
6552;DHT22;3309;48.708;9.290;2022-12-18T07:02:19;-11.60;1.00
6552;DHT22;3309;48.708;9.290;2022-12-18T07:04:45;-11.50;1.00
6552;DHT22;3309;48.708;9.290;2022-12-18T07:07:10;-11.50;1.00
6552;DHT22;3309;48.708;9.290;2022-12-18T07:09:36;-11.50;1.00
6552;DHT22;3309;48.708;9.290;2022-12-18T07:12:01;-11.50;1.00
6552;DHT22;3309;48.708;9.290;2022-12-18T07:14:27;-11.40;1.00
6552;DHT22;3309;48.708;9.290;2022-12-18T07:16:53;-11.40;1.00
6552;DHT22;3309;48.708;9.290;2022-12-18T07:19:18;-11.50;1.00
6552;DHT22;3309;48.708;9.290;2022-12-18T07:21:44;-11.50;1.00
6552;DHT22;3309;48.708;9.290;2022-12-18T07:24:09;-11.50;1.00
6552;DHT22;3309;48.708;9.290;2022-12-18T07:26:35;-11.40;1.00
6552;DHT22;3309;48.708;9.290;2022-12-18T07:29:00;-11.20;1.00
6552;DHT22;3309;48.708;9.290;2022-12-18T07:31:26;-11.10;1.00
6552;DHT22;3309;48.708;9.290;2022-12-18T07:33:52;-10.90;1.00
6552;DHT22;3309;48.708;9.290;2022-12-18T07:36:18;-10.70;1.00
6552;DHT22;3309;48.708;9.290;2022-12-18T07:38:47;-10.40;1.00
6552;DHT22;3309;48.708;9.290;2022-12-18T07:41:13;-9.90;1.00
6552;DHT22;3309;48.708;9.290;2022-12-18T07:43:40;-9.60;1.00
6552;DHT22;3309;48.708;9.290;2022-12-18T07:46:06;-9.30;1.00
6552;DHT22;3309;48.708;9.290;2022-12-18T07:48:32;-9.10;1.00
6552;DHT22;3309;48.708;9.290;2022-12-18T07:51:02;-8.70;1.00
6552;DHT22;3309;48.708;9.290;2022-12-18T07:53:32;-7.20;1.00
6552;DHT22;3309;48.708;9.290;2022-12-18T07:56:05;-7.20;1.00
6552;DHT22;3309;48.708;9.290;2022-12-18T07:58:32;-6.20;1.00
6552;DHT22;3309;48.708;9.290;2022-12-18T08:01:08;-5.20;1.00
6552;DHT22;3309;48.708;9.290;2022-12-18T08:03:35;-4.40;1.00
6552;DHT22;3309;48.708;9.290;2022-12-18T08:06:01;-3.60;1.00
6552;DHT22;3309;48.708;9.290;2022-12-18T08:08:28;-3.00;1.00
6552;DHT22;3309;48.708;9.290;2022-12-18T08:10:53;-2.60;1.00
6552;DHT22;3309;48.708;9.290;2022-12-18T08:13:19;-2.10;1.00
6552;DHT22;3309;48.708;9.290;2022-12-18T08:15:44;-1.60;1.00
6552;DHT22;3309;48.708;9.290;2022-12-18T08:18:10;-0.80;1.00
6552;DHT22;3309;48.708;9.290;2022-12-18T08:20:36;-0.20;1.00
6552;DHT22;3309;48.708;9.290;2022-12-18T08:23:01;0.10;1.00
6552;DHT22;3309;48.708;9.290;2022-12-18T08:25:27;0.50;1.00
6552;DHT22;3309;48.708;9.290;2022-12-18T08:27:52;1.00;1.00
6552;DHT22;3309;48.708;9.290;2022-12-18T08:30:18;1.80;1.00
6552;DHT22;3309;48.708;9.290;2022-12-18T08:32:43;1.70;1.00
6552;DHT22;3309;48.708;9.290;2022-12-18T08:35:09;1.90;1.00
6552;DHT22;3309;48.708;9.290;2022-12-18T08:37:37;2.20;1.00
6552;DHT22;3309;48.708;9.290;2022-12-18T08:40:02;2.60;1.00
6552;DHT22;3309;48.708;9.290;2022-12-18T08:42:28;2.70;1.00
6552;DHT22;3309;48.708;9.290;2022-12-18T08:45:12;3.10;1.00
6552;DHT22;3309;48.708;9.290;2022-12-18T08:47:38;3.50;1.00
6552;DHT22;3309;48.708;9.290;2022-12-18T08:50:04;3.30;1.00
6552;DHT22;3309;48.708;9.290;2022-12-18T08:52:31;2.80;1.00
6552;DHT22;3309;48.708;9.290;2022-12-18T08:54:57;2.30;1.00
6552;DHT22;3309;48.708;9.290;2022-12-18T08:57:23;1.60;1.00
6552;DHT22;3309;48.708;9.290;2022-12-18T08:59:48;1.50;1.00
6552;DHT22;3309;48.708;9.290;2022-12-18T09:02:14;2.20;1.00
6552;DHT22;3309;48.708;9.290;2022-12-18T09:04:39;2.80;1.00
6552;DHT22;3309;48.708;9.290;2022-12-18T09:07:05;3.50;1.00
6552;DHT22;3309;48.708;9.290;2022-12-18T09:09:30;4.30;1.00
6552;DHT22;3309;48.708;9.290;2022-12-18T09:11:56;4.90;1.00
6552;DHT22;3309;48.708;9.290;2022-12-18T09:14:22;5.60;1.00
6552;DHT22;3309;48.708;9.290;2022-12-18T09:16:47;6.20;1.00
6552;DHT22;3309;48.708;9.290;2022-12-18T09:19:13;6.70;1.00
6552;DHT22;3309;48.708;9.290;2022-12-18T09:21:38;7.00;1.00
6552;DHT22;3309;48.708;9.290;2022-12-18T09:24:05;7.20;1.00
6552;DHT22;3309;48.708;9.290;2022-12-18T09:26:30;7.40;1.00
6552;DHT22;3309;48.708;9.290;2022-12-18T09:28:56;7.70;1.00
6552;DHT22;3309;48.708;9.290;2022-12-18T09:31:23;7.90;1.00
6552;DHT22;3309;48.708;9.290;2022-12-18T09:33:50;7.80;1.00
6552;DHT22;3309;48.708;9.290;2022-12-18T09:36:16;7.60;1.00
6552;DHT22;3309;48.708;9.290;2022-12-18T09:38:43;7.70;1.00
6552;DHT22;3309;48.708;9.290;2022-12-18T09:44:01;8.00;1.00
6552;DHT22;3309;48.708;9.290;2022-12-18T09:46:32;8.20;1.00
6552;DHT22;3309;48.708;9.290;2022-12-18T09:49:01;8.40;1.00
6552;DHT22;3309;48.708;9.290;2022-12-18T09:51:39;8.50;1.00
6552;DHT22;3309;48.708;9.290;2022-12-18T09:54:19;8.80;1.00
6552;DHT22;3309;48.708;9.290;2022-12-18T09:56:46;8.90;1.00
6552;DHT22;3309;48.708;9.290;2022-12-18T10:19:49;7.90;1.00
6552;DHT22;3309;48.708;9.290;2022-12-18T10:22:40;8.40;1.00
6552;DHT22;3309;48.708;9.290;2022-12-18T10:27:46;9.30;1.00
6552;DHT22;3309;48.708;9.290;2022-12-18T10:30:14;9.40;1.00
6552;DHT22;3309;48.708;9.290;2022-12-18T10:32:41;9.20;1.00
6552;DHT22;3309;48.708;9.290;2022-12-18T10:35:22;9.20;1.00
6552;DHT22;3309;48.708;9.290;2022-12-18T10:38:19;9.20;1.00
6552;DHT22;3309;48.708;9.290;2022-12-18T10:40:57;9.30;1.00
6552;DHT22;3309;48.708;9.290;2022-12-18T10:43:32;9.20;1.00
6552;DHT22;3309;48.708;9.290;2022-12-18T10:46:15;8.90;1.00
6552;DHT22;3309;48.708;9.290;2022-12-18T10:48:55;8.50;1.00
6552;DHT22;3309;48.708;9.290;2022-12-18T10:54:35;7.80;1.00
6552;DHT22;3309;48.708;9.290;2022-12-18T10:56:42;7.30;1.00
6552;DHT22;3309;48.708;9.290;2022-12-18T10:59:10;6.80;1.00
6552;DHT22;3309;48.708;9.290;2022-12-18T11:04:25;6.00;1.00
6552;DHT22;3309;48.708;9.290;2022-12-18T11:09:38;4.60;1.00
6552;DHT22;3309;48.708;9.290;2022-12-18T11:12:17;4.20;1.00
6552;DHT22;3309;48.708;9.290;2022-12-18T11:14:46;3.80;1.00
6552;DHT22;3309;48.708;9.290;2022-12-18T11:17:38;3.50;1.00
6552;DHT22;3309;48.708;9.290;2022-12-18T11:20:18;3.50;1.00
6552;DHT22;3309;48.708;9.290;2022-12-18T11:23:01;3.30;1.00
6552;DHT22;3309;48.708;9.290;2022-12-18T11:25:28;3.20;1.00
6552;DHT22;3309;48.708;9.290;2022-12-18T11:27:58;3.20;1.00
6552;DHT22;3309;48.708;9.290;2022-12-18T11:30:25;3.30;1.00
6552;DHT22;3309;48.708;9.290;2022-12-18T11:38:04;3.80;1.00
6552;DHT22;3309;48.708;9.290;2022-12-18T11:40:40;3.70;1.00
6552;DHT22;3309;48.708;9.290;2022-12-18T11:45:43;3.30;1.00
6552;DHT22;3309;48.708;9.290;2022-12-18T11:48:14;3.00;1.00
6552;DHT22;3309;48.708;9.290;2022-12-18T11:50:52;2.80;1.00
6552;DHT22;3309;48.708;9.290;2022-12-18T11:53:19;2.90;1.00
6552;DHT22;3309;48.708;9.290;2022-12-18T11:56:47;3.30;1.00
6552;DHT22;3309;48.708;9.290;2022-12-18T12:01:43;4.10;1.00
6552;DHT22;3309;48.708;9.290;2022-12-18T12:07:18;4.50;1.00
6552;DHT22;3309;48.708;9.290;2022-12-18T12:12:51;5.10;1.00
6552;DHT22;3309;48.708;9.290;2022-12-18T12:15:47;5.20;1.00
6552;DHT22;3309;48.708;9.290;2022-12-18T12:18:33;5.40;1.00
6552;DHT22;3309;48.708;9.290;2022-12-18T12:21:24;5.50;1.00
6552;DHT22;3309;48.708;9.290;2022-12-18T12:24:14;5.20;1.00
6552;DHT22;3309;48.708;9.290;2022-12-18T12:26:48;4.90;1.00
6552;DHT22;3309;48.708;9.290;2022-12-18T12:29:52;4.60;1.00
6552;DHT22;3309;48.708;9.290;2022-12-18T12:35:21;4.30;1.00
6552;DHT22;3309;48.708;9.290;2022-12-18T12:40:43;4.10;1.00
6552;DHT22;3309;48.708;9.290;2022-12-18T12:45:55;3.80;1.00
6552;DHT22;3309;48.708;9.290;2022-12-18T12:48:46;3.30;1.00
6552;DHT22;3309;48.708;9.290;2022-12-18T12:51:28;3.40;1.00
6552;DHT22;3309;48.708;9.290;2022-12-18T12:53:57;3.20;1.00
6552;DHT22;3309;48.708;9.290;2022-12-18T12:56:27;3.10;1.00
6552;DHT22;3309;48.708;9.290;2022-12-18T12:59:11;3.00;1.00
6552;DHT22;3309;48.708;9.290;2022-12-18T13:01:54;2.90;1.00
6552;DHT22;3309;48.708;9.290;2022-12-18T13:07:14;2.80;1.00
6552;DHT22;3309;48.708;9.290;2022-12-18T13:13:01;2.80;1.00
6552;DHT22;3309;48.708;9.290;2022-12-18T13:20:36;2.90;1.00
6552;DHT22;3309;48.708;9.290;2022-12-18T13:25:51;2.70;1.00
